createdAt,value
2019-02-25T00:02:58.101Z,69.50
2019-02-25T00:08:03.741Z,70.70
2019-02-25T00:13:08.993Z,73.67
2019-02-25T00:18:14.262Z,78.73
2019-02-25T00:23:19.822Z,77.70
2019-02-25T00:28:25.488Z,74.40
2019-02-25T00:33:30.902Z,79.67
2019-02-25T00:38:36.506Z,89.53
2019-02-25T00:43:42.113Z,86.40
2019-02-25T00:48:47.431Z,90.80
2019-02-25T00:53:52.892Z,101.10
2019-02-25T00:58:58.570Z,96.87
2019-02-25T01:04:04.227Z,104.70
2019-02-25T01:09:09.763Z,104.53
2019-02-25T01:14:15.277Z,104.10
2019-02-25T01:19:20.799Z,101.97
2019-02-25T01:24:26.273Z,110.13
2019-02-25T01:29:31.845Z,119.60
2019-02-25T01:34:37.391Z,110.33
2019-02-25T01:39:42.975Z,120.10
2019-02-25T01:44:49.877Z,124.40
2019-02-25T01:49:55.609Z,116.67
2019-02-25T01:55:00.888Z,102.47
2019-02-25T02:00:20.070Z,96.57
2019-02-25T02:05:25.434Z,88.93
2019-02-25T02:10:30.989Z,108.47
2019-02-25T02:15:36.361Z,106.53
2019-02-25T02:20:41.807Z,114.60
2019-02-25T02:25:47.477Z,98.87
2019-02-25T02:30:53.136Z,104.40
2019-02-25T02:35:58.739Z,93.73
2019-02-25T02:41:04.165Z,98.47
2019-02-25T02:46:14.907Z,102.40
2019-02-25T02:51:21.162Z,90.63
2019-02-25T02:56:26.591Z,92.90
2019-02-25T03:01:31.799Z,94.10
2019-02-25T03:06:37.028Z,98.33
2019-02-25T03:11:42.365Z,85.73
2019-02-25T03:16:47.523Z,85.77
2019-02-25T03:21:52.981Z,92.07
2019-02-25T03:26:58.540Z,86.90
2019-02-25T03:32:03.683Z,82.20
2019-02-25T03:37:08.948Z,87.60
2019-02-25T03:42:14.057Z,79.03
2019-02-25T03:47:19.372Z,73.03
2019-02-25T03:52:24.616Z,72.47
2019-02-25T03:57:29.954Z,67.73
2019-02-25T04:02:35.326Z,70.90
2019-02-25T04:07:41.203Z,71.27
2019-02-25T04:12:46.834Z,66.43
2019-02-25T04:17:52.171Z,73.13
2019-02-25T04:22:57.504Z,62.93
2019-02-25T04:28:02.938Z,62.77
2019-02-25T04:33:08.317Z,51.50
2019-02-25T04:38:13.565Z,45.73
2019-02-25T04:43:18.710Z,41.63
2019-02-25T04:48:24.021Z,43.33
2019-02-25T04:53:30.261Z,39.30
2019-02-25T04:58:35.453Z,36.83
2019-02-25T05:03:41.184Z,38.30
2019-02-25T05:08:46.661Z,38.10
2019-02-25T05:13:51.807Z,40.40
2019-02-25T05:18:57.322Z,38.80
2019-02-25T05:24:02.612Z,35.40
2019-02-25T05:29:08.071Z,36.83
2019-02-25T05:34:13.438Z,34.10
2019-02-25T05:39:18.797Z,33.93
2019-02-25T05:44:24.158Z,36.63
2019-02-25T05:49:29.511Z,33.60
2019-02-25T05:54:34.662Z,30.90
2019-02-25T05:59:40.003Z,33.50
2019-02-25T06:04:45.226Z,31.37
2019-02-25T06:09:50.731Z,27.10
2019-02-25T06:14:56.099Z,25.33
2019-02-25T06:20:01.664Z,26.73
2019-02-25T06:25:09.374Z,27.33
2019-02-25T06:30:19.432Z,28.60
2019-02-25T06:35:25.122Z,25.73
2019-02-25T06:40:30.509Z,28.13
2019-02-25T06:45:38.773Z,31.00
2019-02-25T06:50:44.035Z,23.13
2019-02-25T06:55:49.280Z,28.13
2019-02-25T07:00:54.872Z,23.30
2019-02-25T07:06:04.851Z,30.73
2019-02-25T07:11:26.894Z,22.60
2019-02-25T07:16:33.596Z,29.53
2019-02-25T07:21:41.949Z,35.77
2019-02-25T07:27:04.842Z,27.60
2019-02-25T07:32:11.859Z,25.53
2019-02-25T07:37:30.519Z,28.93
2019-02-25T07:42:40.261Z,26.17
2019-02-25T07:47:59.412Z,41.33
2019-02-25T07:53:06.251Z,26.43
2019-02-25T07:58:16.133Z,21.43
2019-02-25T08:03:38.090Z,22.67
2019-02-25T08:08:53.690Z,29.03
2019-02-25T08:14:01.013Z,23.60
2019-02-25T08:19:23.070Z,23.93
2019-02-25T08:24:30.992Z,22.17
2019-02-25T08:29:44.423Z,19.83
2019-02-25T08:35:00.096Z,19.80
2019-02-25T08:40:22.165Z,29.50
2019-02-25T08:45:30.184Z,22.30
2019-02-25T08:50:35.566Z,19.77
2019-02-25T08:55:40.756Z,19.37
2019-02-25T09:00:46.055Z,17.87
2019-02-25T09:05:51.926Z,65.37
2019-02-25T09:10:57.402Z,15.20
2019-02-25T09:16:03.264Z,21.03
2019-02-25T09:21:08.899Z,14.50
2019-02-25T09:26:14.187Z,17.10
2019-02-25T09:31:20.864Z,17.53
2019-02-25T09:36:27.459Z,20.43
2019-02-25T09:41:32.827Z,29.27
2019-02-25T09:46:38.107Z,20.73
2019-02-25T09:51:43.749Z,28.00
2019-02-25T09:56:49.100Z,30.37
2019-02-25T10:01:54.611Z,21.73
2019-02-25T10:07:02.456Z,26.17
2019-02-25T10:12:07.205Z,23.53
2019-02-25T10:17:12.890Z,23.67
2019-02-25T10:22:18.792Z,36.83
2019-02-25T10:27:24.490Z,24.27
2019-02-25T10:32:30.266Z,23.90
2019-02-25T10:37:36.404Z,26.57
2019-02-25T10:42:42.660Z,23.07
2019-02-25T10:47:49.586Z,46.93
2019-02-25T10:53:03.297Z,26.70
2019-02-25T10:58:03.640Z,26.13
2019-02-25T11:03:10.716Z,26.30
2019-02-25T11:08:18.056Z,21.97
2019-02-25T11:13:23.239Z,36.27
2019-02-25T11:18:28.620Z,25.73
2019-02-25T11:23:34.105Z,26.30
2019-02-25T11:28:41.235Z,23.40
2019-02-25T11:33:46.707Z,28.37
2019-02-25T11:38:52.347Z,24.47
2019-02-25T11:43:57.606Z,26.70
2019-02-25T11:49:03.086Z,23.67
2019-02-25T11:54:08.479Z,25.97
2019-02-25T11:59:13.788Z,24.57
2019-02-25T12:04:19.340Z,21.93
2019-02-25T12:09:24.563Z,22.77
2019-02-25T12:14:30.166Z,26.23
2019-02-25T12:19:35.624Z,26.93
2019-02-25T12:24:41.602Z,26.83
2019-02-25T12:29:47.165Z,29.83
2019-02-25T12:34:52.629Z,25.70
2019-02-25T12:39:58.103Z,34.87
2019-02-25T12:45:03.866Z,27.93
2019-02-25T12:50:13.109Z,27.33
2019-02-25T12:55:19.589Z,25.40
2019-02-25T13:00:25.773Z,27.87
2019-02-25T13:05:31.135Z,25.03
2019-02-25T13:10:36.521Z,27.23
2019-02-25T13:15:41.745Z,28.90
2019-02-25T13:20:47.292Z,30.33
2019-02-25T13:25:52.606Z,30.30
2019-02-25T13:30:58.847Z,35.33
2019-02-25T13:36:07.888Z,29.93
2019-02-25T13:41:13.470Z,35.43
2019-02-25T13:46:19.306Z,31.57
2019-02-25T13:51:24.684Z,27.87
2019-02-25T13:56:30.281Z,30.40
2019-02-25T14:01:35.609Z,27.10
2019-02-25T14:06:41.070Z,32.17
2019-02-25T14:11:46.526Z,26.30
2019-02-25T14:16:52.499Z,31.13
2019-02-25T14:21:58.271Z,25.17
2019-02-25T14:27:03.738Z,31.87
2019-02-25T14:32:10.932Z,34.97
2019-02-25T14:37:17.931Z,26.23
2019-02-25T14:42:25.908Z,27.23
2019-02-25T14:47:36.923Z,28.30
2019-02-25T14:52:39.539Z,25.73
2019-02-25T14:57:45.530Z,31.03
2019-02-25T15:02:50.764Z,35.57
2019-02-25T15:07:56.527Z,33.33
2019-02-25T15:13:03.839Z,33.47
2019-02-25T15:18:08.965Z,31.73
2019-02-25T15:23:16.512Z,54.57
2019-02-25T15:28:22.507Z,38.90
2019-02-25T15:33:27.957Z,31.00
2019-02-25T15:38:34.900Z,29.30
2019-02-25T15:43:40.963Z,36.47
2019-02-25T15:48:46.546Z,31.97
2019-02-25T15:53:54.100Z,38.87
2019-02-25T15:58:59.352Z,33.47
2019-02-25T16:04:06.930Z,28.77
2019-02-25T16:09:17.016Z,26.07
2019-02-25T16:14:21.813Z,23.60
2019-02-25T16:19:41.168Z,26.40
2019-02-25T16:24:36.466Z,30.27
2019-02-25T16:29:42.366Z,46.27
2019-02-25T16:34:47.812Z,28.83
2019-02-25T16:39:53.718Z,79.77
2019-02-25T16:45:01.424Z,42.33
2019-02-25T16:50:11.838Z,84.57
2019-02-25T16:55:22.729Z,34.60
2019-02-25T17:00:32.301Z,39.53
2019-02-25T17:05:37.957Z,33.67
2019-02-25T17:10:44.333Z,79.43
2019-02-25T17:15:49.905Z,47.30
2019-02-25T17:20:55.320Z,38.27
2019-02-25T17:26:02.035Z,31.73
2019-02-25T17:31:09.040Z,53.23
2019-02-25T17:36:16.582Z,27.23
2019-02-25T17:41:22.529Z,32.27
2019-02-25T17:46:28.779Z,26.27
2019-02-25T17:51:35.435Z,25.97
2019-02-25T17:56:43.138Z,35.67
2019-02-25T18:01:50.132Z,44.03
2019-02-25T18:06:55.616Z,61.50
2019-02-25T18:12:02.240Z,64.23
2019-02-25T18:17:10.304Z,27.50
2019-02-25T18:22:17.313Z,31.63
2019-02-25T18:27:24.339Z,29.63
2019-02-25T18:32:30.425Z,28.97
2019-02-25T18:37:39.697Z,29.03
2019-02-25T18:42:45.242Z,34.17
2019-02-25T18:47:50.563Z,30.97
2019-02-25T18:52:57.224Z,31.37
2019-02-25T18:58:05.100Z,29.87
2019-02-25T19:03:11.672Z,27.87
2019-02-25T19:08:21.692Z,26.00
2019-02-25T19:13:27.668Z,31.20
2019-02-25T19:18:34.468Z,28.50
2019-02-25T19:23:41.851Z,44.20
2019-02-25T19:28:48.076Z,48.10
2019-02-25T19:33:54.710Z,54.57
2019-02-25T19:39:04.932Z,38.47
2019-02-25T19:44:10.604Z,47.50
2019-02-25T19:49:18.368Z,33.37
2019-02-25T19:54:23.551Z,41.87
2019-02-25T19:59:30.936Z,42.30
2019-02-25T20:04:38.204Z,70.97
2019-02-25T20:09:44.841Z,65.27
2019-02-25T20:14:50.340Z,101.87
2019-02-25T20:19:55.466Z,61.20
2019-02-25T20:25:00.627Z,44.37
2019-02-25T20:30:08.980Z,42.57
2019-02-25T20:35:17.733Z,33.20
2019-02-25T20:40:26.678Z,50.40
2019-02-25T20:45:35.296Z,34.37
2019-02-25T20:50:41.068Z,41.77
2019-02-25T20:55:48.241Z,63.07
2019-02-25T21:00:54.426Z,44.60
2019-02-25T21:06:02.772Z,38.83
2019-02-25T21:11:10.999Z,43.20
2019-02-25T21:16:16.217Z,36.30
2019-02-25T21:21:21.552Z,86.93
2019-02-25T21:26:29.270Z,39.17
2019-02-25T21:31:34.145Z,43.50
2019-02-25T21:36:40.367Z,30.00
2019-02-25T21:41:45.992Z,34.03
2019-02-25T21:46:54.018Z,36.00
2019-02-25T21:52:00.347Z,32.87
2019-02-25T21:57:09.645Z,32.57
2019-02-25T22:02:14.595Z,29.97
2019-02-25T22:07:24.392Z,29.23
2019-02-25T22:12:30.861Z,30.70
2019-02-25T22:17:34.464Z,33.50
2019-02-25T22:22:39.891Z,29.57
2019-02-25T22:27:45.635Z,31.27
2019-02-25T22:32:51.159Z,25.73
2019-02-25T22:37:58.169Z,31.20
2019-02-25T22:43:03.586Z,28.03
2019-02-25T22:48:11.598Z,29.83
2019-02-25T22:53:16.423Z,31.43
2019-02-25T22:58:21.838Z,26.80
2019-02-25T23:03:27.840Z,22.07
2019-02-25T23:08:33.529Z,24.73
2019-02-25T23:13:38.756Z,21.50
2019-02-25T23:18:44.097Z,22.50
2019-02-25T23:23:53.428Z,16.73
2019-02-25T23:28:58.135Z,24.17
2019-02-25T23:34:05.607Z,18.17
2019-02-25T23:39:12.394Z,18.03
2019-02-25T23:44:19.773Z,15.27
2019-02-25T23:49:27.518Z,14.70
2019-02-25T23:54:32.068Z,19.77
2019-02-25T23:59:40.452Z,14.57
